sensor_id;sensor_type;location;lat;lon;timestamp;P1;durP1;ratioP1;P2;durP2;ratioP2
32812;SDS011;19162;48.254;11.454;2024-01-27T00:01:52;2.13;;;1.57;;
32812;SDS011;19162;48.254;11.454;2024-01-27T00:04:52;3.53;;;1.50;;
32812;SDS011;19162;48.254;11.454;2024-01-27T00:07:52;4.68;;;2.10;;
32812;SDS011;19162;48.254;11.454;2024-01-27T00:10:52;3.92;;;1.80;;
32812;SDS011;19162;48.254;11.454;2024-01-27T00:13:52;3.55;;;1.50;;
32812;SDS011;19162;48.254;11.454;2024-01-27T00:16:52;3.57;;;1.80;;
32812;SDS011;19162;48.254;11.454;2024-01-27T00:19:53;2.38;;;1.20;;
32812;SDS011;19162;48.254;11.454;2024-01-27T00:22:53;3.65;;;2.15;;
32812;SDS011;19162;48.254;11.454;2024-01-27T00:25:53;5.77;;;2.40;;
32812;SDS011;19162;48.254;11.454;2024-01-27T00:28:53;3.15;;;1.90;;
32812;SDS011;19162;48.254;11.454;2024-01-27T00:31:53;5.40;;;2.97;;
32812;SDS011;19162;48.254;11.454;2024-01-27T00:34:54;4.70;;;1.90;;
32812;SDS011;19162;48.254;11.454;2024-01-27T00:37:55;3.17;;;1.77;;
32812;SDS011;19162;48.254;11.454;2024-01-27T00:40:55;3.17;;;2.10;;
32812;SDS011;19162;48.254;11.454;2024-01-27T00:43:55;3.85;;;2.10;;
32812;SDS011;19162;48.254;11.454;2024-01-27T00:46:55;6.90;;;2.00;;
32812;SDS011;19162;48.254;11.454;2024-01-27T00:49:55;4.33;;;2.00;;
32812;SDS011;19162;48.254;11.454;2024-01-27T00:52:56;3.50;;;2.00;;
32812;SDS011;19162;48.254;11.454;2024-01-27T00:55:56;5.88;;;2.38;;
32812;SDS011;19162;48.254;11.454;2024-01-27T00:58:56;2.60;;;2.33;;
32812;SDS011;19162;48.254;11.454;2024-01-27T01:01:56;3.15;;;2.08;;
32812;SDS011;19162;48.254;11.454;2024-01-27T01:04:56;6.70;;;2.22;;
32812;SDS011;19162;48.254;11.454;2024-01-27T01:07:57;5.05;;;2.50;;
32812;SDS011;19162;48.254;11.454;2024-01-27T01:10:57;4.65;;;2.40;;
32812;SDS011;19162;48.254;11.454;2024-01-27T01:13:57;5.03;;;2.80;;
32812;SDS011;19162;48.254;11.454;2024-01-27T01:16:57;5.80;;;2.37;;
32812;SDS011;19162;48.254;11.454;2024-01-27T01:19:58;4.60;;;2.65;;
32812;SDS011;19162;48.254;11.454;2024-01-27T01:22:58;4.87;;;2.77;;
32812;SDS011;19162;48.254;11.454;2024-01-27T01:25:58;3.97;;;2.83;;
32812;SDS011;19162;48.254;11.454;2024-01-27T01:28:58;6.43;;;2.85;;
32812;SDS011;19162;48.254;11.454;2024-01-27T01:31:59;6.87;;;2.30;;
32812;SDS011;19162;48.254;11.454;2024-01-27T01:34:59;5.97;;;2.60;;
32812;SDS011;19162;48.254;11.454;2024-01-27T01:37:59;5.40;;;2.88;;
32812;SDS011;19162;48.254;11.454;2024-01-27T01:40:59;4.40;;;2.53;;
32812;SDS011;19162;48.254;11.454;2024-01-27T01:43:59;4.37;;;3.10;;
32812;SDS011;19162;48.254;11.454;2024-01-27T01:47:00;4.10;;;2.80;;
32812;SDS011;19162;48.254;11.454;2024-01-27T01:50:00;4.40;;;2.53;;
32812;SDS011;19162;48.254;11.454;2024-01-27T01:53:00;3.90;;;2.53;;
32812;SDS011;19162;48.254;11.454;2024-01-27T01:56:01;3.05;;;2.75;;
32812;SDS011;19162;48.254;11.454;2024-01-27T01:59:02;2.80;;;2.17;;
32812;SDS011;19162;48.254;11.454;2024-01-27T02:02:02;4.47;;;2.60;;
32812;SDS011;19162;48.254;11.454;2024-01-27T02:05:03;4.50;;;2.60;;
32812;SDS011;19162;48.254;11.454;2024-01-27T02:08:03;4.50;;;2.70;;
32812;SDS011;19162;48.254;11.454;2024-01-27T02:11:04;4.57;;;2.63;;
32812;SDS011;19162;48.254;11.454;2024-01-27T02:14:04;4.05;;;2.70;;
32812;SDS011;19162;48.254;11.454;2024-01-27T02:17:04;3.53;;;2.63;;
32812;SDS011;19162;48.254;11.454;2024-01-27T02:20:06;3.78;;;2.60;;
32812;SDS011;19162;48.254;11.454;2024-01-27T02:23:06;3.30;;;2.38;;
32812;SDS011;19162;48.254;11.454;2024-01-27T02:26:07;3.45;;;2.42;;
32812;SDS011;19162;48.254;11.454;2024-01-27T02:29:07;3.47;;;2.30;;
32812;SDS011;19162;48.254;11.454;2024-01-27T02:32:07;3.30;;;2.58;;
32812;SDS011;19162;48.254;11.454;2024-01-27T02:35:07;3.75;;;2.67;;
32812;SDS011;19162;48.254;11.454;2024-01-27T02:38:08;4.70;;;2.95;;
32812;SDS011;19162;48.254;11.454;2024-01-27T02:41:09;6.47;;;2.88;;
32812;SDS011;19162;48.254;11.454;2024-01-27T02:44:09;5.68;;;3.05;;
32812;SDS011;19162;48.254;11.454;2024-01-27T02:47:09;5.15;;;2.50;;
32812;SDS011;19162;48.254;11.454;2024-01-27T02:50:10;4.07;;;2.43;;
32812;SDS011;19162;48.254;11.454;2024-01-27T02:53:10;4.78;;;2.50;;
32812;SDS011;19162;48.254;11.454;2024-01-27T02:56:10;5.60;;;2.80;;
32812;SDS011;19162;48.254;11.454;2024-01-27T02:59:11;4.38;;;2.08;;
32812;SDS011;19162;48.254;11.454;2024-01-27T03:02:11;3.65;;;2.28;;
32812;SDS011;19162;48.254;11.454;2024-01-27T03:05:12;6.00;;;2.92;;
32812;SDS011;19162;48.254;11.454;2024-01-27T03:08:14;5.18;;;2.70;;
32812;SDS011;19162;48.254;11.454;2024-01-27T03:11:14;5.60;;;2.90;;
32812;SDS011;19162;48.254;11.454;2024-01-27T03:14:14;4.38;;;2.50;;
32812;SDS011;19162;48.254;11.454;2024-01-27T03:17:15;3.95;;;2.80;;
32812;SDS011;19162;48.254;11.454;2024-01-27T03:20:15;2.97;;;2.63;;
32812;SDS011;19162;48.254;11.454;2024-01-27T03:23:15;4.47;;;2.25;;
32812;SDS011;19162;48.254;11.454;2024-01-27T03:26:17;3.53;;;2.40;;
32812;SDS011;19162;48.254;11.454;2024-01-27T03:29:17;3.63;;;2.40;;
32812;SDS011;19162;48.254;11.454;2024-01-27T03:32:17;3.25;;;2.40;;
32812;SDS011;19162;48.254;11.454;2024-01-27T03:35:17;4.93;;;2.58;;
32812;SDS011;19162;48.254;11.454;2024-01-27T03:38:18;5.43;;;2.15;;
32812;SDS011;19162;48.254;11.454;2024-01-27T03:41:18;5.07;;;2.47;;
32812;SDS011;19162;48.254;11.454;2024-01-27T03:44:18;3.42;;;2.22;;
32812;SDS011;19162;48.254;11.454;2024-01-27T03:47:18;5.32;;;2.65;;
32812;SDS011;19162;48.254;11.454;2024-01-27T03:50:19;4.30;;;2.67;;
32812;SDS011;19162;48.254;11.454;2024-01-27T03:53:19;6.05;;;2.50;;
32812;SDS011;19162;48.254;11.454;2024-01-27T03:56:19;5.18;;;2.80;;
32812;SDS011;19162;48.254;11.454;2024-01-27T03:59:19;2.75;;;1.92;;
32812;SDS011;19162;48.254;11.454;2024-01-27T04:02:19;3.27;;;2.20;;
32812;SDS011;19162;48.254;11.454;2024-01-27T04:05:20;4.38;;;2.47;;
32812;SDS011;19162;48.254;11.454;2024-01-27T04:08:20;6.03;;;2.13;;
32812;SDS011;19162;48.254;11.454;2024-01-27T04:11:23;5.70;;;2.42;;
32812;SDS011;19162;48.254;11.454;2024-01-27T04:17:23;4.95;;;3.35;;
32812;SDS011;19162;48.254;11.454;2024-01-27T04:20:23;4.82;;;2.72;;
32812;SDS011;19162;48.254;11.454;2024-01-27T04:23:23;4.27;;;2.60;;
32812;SDS011;19162;48.254;11.454;2024-01-27T04:26:24;2.90;;;2.40;;
32812;SDS011;19162;48.254;11.454;2024-01-27T04:29:24;5.07;;;2.50;;
32812;SDS011;19162;48.254;11.454;2024-01-27T04:32:24;4.70;;;2.42;;
32812;SDS011;19162;48.254;11.454;2024-01-27T04:35:25;6.25;;;2.75;;
32812;SDS011;19162;48.254;11.454;2024-01-27T04:38:25;3.95;;;2.88;;
32812;SDS011;19162;48.254;11.454;2024-01-27T04:41:25;4.43;;;3.23;;
32812;SDS011;19162;48.254;11.454;2024-01-27T04:44:26;5.57;;;3.20;;
32812;SDS011;19162;48.254;11.454;2024-01-27T04:47:26;4.93;;;3.22;;
32812;SDS011;19162;48.254;11.454;2024-01-27T04:50:26;3.37;;;2.83;;
32812;SDS011;19162;48.254;11.454;2024-01-27T04:53:26;5.65;;;2.80;;
32812;SDS011;19162;48.254;11.454;2024-01-27T04:56:27;5.30;;;2.97;;
32812;SDS011;19162;48.254;11.454;2024-01-27T04:59:27;3.87;;;2.47;;
32812;SDS011;19162;48.254;11.454;2024-01-27T05:02:27;4.55;;;2.95;;
32812;SDS011;19162;48.254;11.454;2024-01-27T05:05:27;4.28;;;2.80;;
32812;SDS011;19162;48.254;11.454;2024-01-27T05:08:27;3.00;;;2.67;;
32812;SDS011;19162;48.254;11.454;2024-01-27T05:11:29;3.58;;;2.70;;
32812;SDS011;19162;48.254;11.454;2024-01-27T05:14:29;4.43;;;2.25;;
32812;SDS011;19162;48.254;11.454;2024-01-27T05:17:29;6.00;;;2.90;;
32812;SDS011;19162;48.254;11.454;2024-01-27T05:20:30;5.67;;;2.53;;
32812;SDS011;19162;48.254;11.454;2024-01-27T05:23:30;5.68;;;2.75;;
32812;SDS011;19162;48.254;11.454;2024-01-27T05:26:30;4.40;;;2.20;;
32812;SDS011;19162;48.254;11.454;2024-01-27T05:29:30;4.00;;;2.67;;
32812;SDS011;19162;48.254;11.454;2024-01-27T05:32:30;4.10;;;2.80;;
32812;SDS011;19162;48.254;11.454;2024-01-27T05:35:31;3.58;;;2.30;;
32812;SDS011;19162;48.254;11.454;2024-01-27T05:38:31;4.43;;;2.47;;
32812;SDS011;19162;48.254;11.454;2024-01-27T05:41:32;4.57;;;2.40;;
32812;SDS011;19162;48.254;11.454;2024-01-27T05:44:32;4.93;;;2.67;;
32812;SDS011;19162;48.254;11.454;2024-01-27T05:47:32;4.63;;;2.83;;
32812;SDS011;19162;48.254;11.454;2024-01-27T05:50:33;5.72;;;2.40;;
32812;SDS011;19162;48.254;11.454;2024-01-27T05:53:34;4.40;;;2.90;;
32812;SDS011;19162;48.254;11.454;2024-01-27T05:56:35;6.15;;;3.10;;
32812;SDS011;19162;48.254;11.454;2024-01-27T05:59:36;5.30;;;2.80;;
32812;SDS011;19162;48.254;11.454;2024-01-27T06:02:36;4.80;;;2.90;;
32812;SDS011;19162;48.254;11.454;2024-01-27T06:05:36;3.28;;;2.58;;
32812;SDS011;19162;48.254;11.454;2024-01-27T06:08:37;4.90;;;3.00;;
32812;SDS011;19162;48.254;11.454;2024-01-27T06:11:37;6.13;;;2.70;;
32812;SDS011;19162;48.254;11.454;2024-01-27T06:14:38;5.32;;;3.30;;
32812;SDS011;19162;48.254;11.454;2024-01-27T06:17:38;3.50;;;3.20;;
32812;SDS011;19162;48.254;11.454;2024-01-27T06:20:38;4.88;;;3.25;;
32812;SDS011;19162;48.254;11.454;2024-01-27T06:23:40;9.20;;;3.53;;
32812;SDS011;19162;48.254;11.454;2024-01-27T06:26:40;6.50;;;3.40;;
32812;SDS011;19162;48.254;11.454;2024-01-27T06:29:41;4.65;;;3.15;;
32812;SDS011;19162;48.254;11.454;2024-01-27T06:32:42;4.28;;;3.40;;
32812;SDS011;19162;48.254;11.454;2024-01-27T06:35:42;4.40;;;3.20;;
32812;SDS011;19162;48.254;11.454;2024-01-27T06:38:42;6.03;;;3.00;;
32812;SDS011;19162;48.254;11.454;2024-01-27T06:41:42;3.65;;;3.10;;
32812;SDS011;19162;48.254;11.454;2024-01-27T06:44:43;5.30;;;3.33;;
32812;SDS011;19162;48.254;11.454;2024-01-27T06:47:43;3.67;;;3.28;;
32812;SDS011;19162;48.254;11.454;2024-01-27T06:50:43;5.03;;;2.95;;
32812;SDS011;19162;48.254;11.454;2024-01-27T06:53:43;6.57;;;3.25;;
32812;SDS011;19162;48.254;11.454;2024-01-27T06:56:43;5.57;;;3.65;;
32812;SDS011;19162;48.254;11.454;2024-01-27T06:59:43;7.00;;;4.20;;
32812;SDS011;19162;48.254;11.454;2024-01-27T07:02:44;3.10;;;2.78;;
32812;SDS011;19162;48.254;11.454;2024-01-27T07:05:44;5.28;;;3.50;;
32812;SDS011;19162;48.254;11.454;2024-01-27T07:08:44;6.25;;;4.00;;
32812;SDS011;19162;48.254;11.454;2024-01-27T07:11:44;4.65;;;3.92;;
32812;SDS011;19162;48.254;11.454;2024-01-27T07:14:44;9.13;;;7.68;;
32812;SDS011;19162;48.254;11.454;2024-01-27T07:17:44;9.55;;;6.15;;
32812;SDS011;19162;48.254;11.454;2024-01-27T07:20:45;9.87;;;4.50;;
32812;SDS011;19162;48.254;11.454;2024-01-27T07:23:45;6.73;;;4.13;;
32812;SDS011;19162;48.254;11.454;2024-01-27T07:26:45;4.97;;;4.13;;
32812;SDS011;19162;48.254;11.454;2024-01-27T07:29:46;5.28;;;4.32;;
32812;SDS011;19162;48.254;11.454;2024-01-27T07:32:46;6.33;;;4.27;;
32812;SDS011;19162;48.254;11.454;2024-01-27T07:35:47;5.72;;;3.38;;
32812;SDS011;19162;48.254;11.454;2024-01-27T07:38:47;4.53;;;4.03;;
32812;SDS011;19162;48.254;11.454;2024-01-27T07:41:47;8.68;;;6.25;;
32812;SDS011;19162;48.254;11.454;2024-01-27T07:44:49;7.10;;;5.47;;
32812;SDS011;19162;48.254;11.454;2024-01-27T07:47:49;8.55;;;6.78;;
32812;SDS011;19162;48.254;11.454;2024-01-27T07:50:49;7.40;;;5.70;;
32812;SDS011;19162;48.254;11.454;2024-01-27T07:53:50;7.70;;;5.05;;
32812;SDS011;19162;48.254;11.454;2024-01-27T07:56:52;7.60;;;4.33;;
32812;SDS011;19162;48.254;11.454;2024-01-27T07:59:52;8.18;;;5.72;;
32812;SDS011;19162;48.254;11.454;2024-01-27T08:02:52;5.82;;;5.32;;
32812;SDS011;19162;48.254;11.454;2024-01-27T08:05:52;9.32;;;5.88;;
32812;SDS011;19162;48.254;11.454;2024-01-27T08:08:53;6.97;;;5.50;;
32812;SDS011;19162;48.254;11.454;2024-01-27T08:11:53;10.67;;;5.90;;
32812;SDS011;19162;48.254;11.454;2024-01-27T08:14:53;8.03;;;7.23;;
32812;SDS011;19162;48.254;11.454;2024-01-27T08:17:53;8.82;;;6.28;;
32812;SDS011;19162;48.254;11.454;2024-01-27T08:20:54;6.68;;;5.97;;
32812;SDS011;19162;48.254;11.454;2024-01-27T08:23:54;8.17;;;6.47;;
32812;SDS011;19162;48.254;11.454;2024-01-27T08:26:55;10.02;;;6.95;;
32812;SDS011;19162;48.254;11.454;2024-01-27T08:29:55;12.75;;;7.57;;
32812;SDS011;19162;48.254;11.454;2024-01-27T08:32:55;8.45;;;6.43;;
32812;SDS011;19162;48.254;11.454;2024-01-27T08:35:55;10.30;;;7.93;;
32812;SDS011;19162;48.254;11.454;2024-01-27T08:38:55;9.20;;;7.80;;
32812;SDS011;19162;48.254;11.454;2024-01-27T08:41:56;7.25;;;6.47;;
32812;SDS011;19162;48.254;11.454;2024-01-27T08:44:56;6.60;;;5.75;;
32812;SDS011;19162;48.254;11.454;2024-01-27T08:47:56;8.27;;;7.38;;
32812;SDS011;19162;48.254;11.454;2024-01-27T08:50:56;10.02;;;7.15;;
32812;SDS011;19162;48.254;11.454;2024-01-27T08:53:56;8.73;;;6.87;;
32812;SDS011;19162;48.254;11.454;2024-01-27T08:56:57;8.60;;;6.33;;
32812;SDS011;19162;48.254;11.454;2024-01-27T08:59:57;9.60;;;6.65;;
32812;SDS011;19162;48.254;11.454;2024-01-27T09:02:57;6.25;;;5.43;;
32812;SDS011;19162;48.254;11.454;2024-01-27T09:05:57;8.43;;;6.32;;
32812;SDS011;19162;48.254;11.454;2024-01-27T09:08:58;7.88;;;5.15;;
32812;SDS011;19162;48.254;11.454;2024-01-27T09:11:58;6.37;;;5.00;;
32812;SDS011;19162;48.254;11.454;2024-01-27T09:14:58;6.40;;;4.10;;
32812;SDS011;19162;48.254;11.454;2024-01-27T09:17:58;8.20;;;4.15;;
32812;SDS011;19162;48.254;11.454;2024-01-27T09:20:59;7.43;;;3.63;;
32812;SDS011;19162;48.254;11.454;2024-01-27T09:23:59;6.40;;;4.30;;
32812;SDS011;19162;48.254;11.454;2024-01-27T09:27:01;6.35;;;4.30;;
32812;SDS011;19162;48.254;11.454;2024-01-27T09:30:02;9.32;;;4.28;;
32812;SDS011;19162;48.254;11.454;2024-01-27T09:33:03;7.50;;;4.78;;
32812;SDS011;19162;48.254;11.454;2024-01-27T09:36:03;8.25;;;4.47;;
32812;SDS011;19162;48.254;11.454;2024-01-27T09:39:04;8.88;;;4.97;;
32812;SDS011;19162;48.254;11.454;2024-01-27T09:42:04;8.30;;;4.80;;
32812;SDS011;19162;48.254;11.454;2024-01-27T09:45:06;8.97;;;5.13;;
32812;SDS011;19162;48.254;11.454;2024-01-27T09:48:08;15.65;;;7.60;;
32812;SDS011;19162;48.254;11.454;2024-01-27T09:51:10;8.23;;;5.10;;
32812;SDS011;19162;48.254;11.454;2024-01-27T09:54:10;6.30;;;3.67;;
32812;SDS011;19162;48.254;11.454;2024-01-27T09:57:10;7.07;;;4.20;;
32812;SDS011;19162;48.254;11.454;2024-01-27T10:00:12;8.02;;;4.03;;
32812;SDS011;19162;48.254;11.454;2024-01-27T10:03:12;5.88;;;3.35;;
32812;SDS011;19162;48.254;11.454;2024-01-27T10:06:12;7.75;;;3.70;;
32812;SDS011;19162;48.254;11.454;2024-01-27T10:09:14;5.18;;;3.17;;
32812;SDS011;19162;48.254;11.454;2024-01-27T10:12:15;10.53;;;3.53;;
32812;SDS011;19162;48.254;11.454;2024-01-27T10:15:22;7.10;;;3.22;;
32812;SDS011;19162;48.254;11.454;2024-01-27T10:18:22;7.57;;;3.88;;
32812;SDS011;19162;48.254;11.454;2024-01-27T10:21:22;6.00;;;3.55;;
32812;SDS011;19162;48.254;11.454;2024-01-27T10:24:24;8.57;;;3.88;;
32812;SDS011;19162;48.254;11.454;2024-01-27T10:27:24;7.75;;;3.42;;
32812;SDS011;19162;48.254;11.454;2024-01-27T10:30:24;6.43;;;3.00;;
32812;SDS011;19162;48.254;11.454;2024-01-27T10:33:25;7.13;;;3.45;;
32812;SDS011;19162;48.254;11.454;2024-01-27T10:36:42;6.32;;;3.30;;
32812;SDS011;19162;48.254;11.454;2024-01-27T10:39:42;7.07;;;3.28;;
32812;SDS011;19162;48.254;11.454;2024-01-27T10:42:43;7.55;;;3.30;;
32812;SDS011;19162;48.254;11.454;2024-01-27T10:45:44;7.03;;;3.00;;
32812;SDS011;19162;48.254;11.454;2024-01-27T10:48:44;7.53;;;3.50;;
32812;SDS011;19162;48.254;11.454;2024-01-27T10:51:55;5.40;;;2.92;;
32812;SDS011;19162;48.254;11.454;2024-01-27T10:54:58;7.38;;;3.45;;
32812;SDS011;19162;48.254;11.454;2024-01-27T10:57:59;7.43;;;3.42;;
32812;SDS011;19162;48.254;11.454;2024-01-27T11:01:02;3.97;;;2.95;;
32812;SDS011;19162;48.254;11.454;2024-01-27T11:04:03;9.20;;;3.42;;
32812;SDS011;19162;48.254;11.454;2024-01-27T11:07:06;6.53;;;3.60;;
32812;SDS011;19162;48.254;11.454;2024-01-27T11:10:07;6.80;;;3.78;;
32812;SDS011;19162;48.254;11.454;2024-01-27T11:13:07;6.18;;;2.90;;
32812;SDS011;19162;48.254;11.454;2024-01-27T11:16:18;8.00;;;3.55;;
32812;SDS011;19162;48.254;11.454;2024-01-27T11:19:18;7.47;;;3.63;;
32812;SDS011;19162;48.254;11.454;2024-01-27T11:25:23;6.65;;;3.47;;
32812;SDS011;19162;48.254;11.454;2024-01-27T11:28:25;6.23;;;3.43;;
32812;SDS011;19162;48.254;11.454;2024-01-27T11:31:26;8.00;;;3.40;;
32812;SDS011;19162;48.254;11.454;2024-01-27T11:34:28;8.90;;;3.40;;
32812;SDS011;19162;48.254;11.454;2024-01-27T11:37:40;8.80;;;3.97;;
32812;SDS011;19162;48.254;11.454;2024-01-27T11:40:46;7.90;;;3.30;;
32812;SDS011;19162;48.254;11.454;2024-01-27T11:43:56;7.95;;;3.40;;
32812;SDS011;19162;48.254;11.454;2024-01-27T11:46:56;5.50;;;3.30;;
32812;SDS011;19162;48.254;11.454;2024-01-27T11:49:57;7.65;;;3.78;;
32812;SDS011;19162;48.254;11.454;2024-01-27T11:52:58;6.97;;;4.15;;
32812;SDS011;19162;48.254;11.454;2024-01-27T11:55:58;6.05;;;3.17;;
32812;SDS011;19162;48.254;11.454;2024-01-27T11:58:59;5.57;;;3.40;;
32812;SDS011;19162;48.254;11.454;2024-01-27T12:02:00;10.10;;;3.53;;
32812;SDS011;19162;48.254;11.454;2024-01-27T12:05:00;5.28;;;2.63;;
32812;SDS011;19162;48.254;11.454;2024-01-27T12:08:00;6.68;;;3.15;;
32812;SDS011;19162;48.254;11.454;2024-01-27T12:11:01;6.57;;;3.17;;
32812;SDS011;19162;48.254;11.454;2024-01-27T12:14:01;6.67;;;3.60;;
32812;SDS011;19162;48.254;11.454;2024-01-27T12:17:01;7.50;;;3.90;;
32812;SDS011;19162;48.254;11.454;2024-01-27T12:20:01;5.20;;;3.00;;
32812;SDS011;19162;48.254;11.454;2024-01-27T12:23:02;5.70;;;3.03;;
32812;SDS011;19162;48.254;11.454;2024-01-27T12:26:03;6.00;;;2.90;;
32812;SDS011;19162;48.254;11.454;2024-01-27T12:29:04;5.00;;;2.72;;
32812;SDS011;19162;48.254;11.454;2024-01-27T12:32:06;6.97;;;2.88;;
32812;SDS011;19162;48.254;11.454;2024-01-27T12:35:06;5.07;;;3.05;;
32812;SDS011;19162;48.254;11.454;2024-01-27T12:38:07;4.25;;;3.17;;
32812;SDS011;19162;48.254;11.454;2024-01-27T12:41:07;7.73;;;3.30;;
32812;SDS011;19162;48.254;11.454;2024-01-27T12:44:07;5.07;;;2.80;;
32812;SDS011;19162;48.254;11.454;2024-01-27T12:47:07;6.43;;;3.17;;
32812;SDS011;19162;48.254;11.454;2024-01-27T12:50:08;7.20;;;3.47;;
32812;SDS011;19162;48.254;11.454;2024-01-27T12:53:08;7.22;;;3.80;;
32812;SDS011;19162;48.254;11.454;2024-01-27T12:56:08;8.45;;;2.65;;
32812;SDS011;19162;48.254;11.454;2024-01-27T12:59:09;7.47;;;3.38;;
32812;SDS011;19162;48.254;11.454;2024-01-27T13:02:09;4.97;;;2.63;;
32812;SDS011;19162;48.254;11.454;2024-01-27T13:05:09;6.37;;;3.13;;
32812;SDS011;19162;48.254;11.454;2024-01-27T13:08:09;3.35;;;2.58;;
32812;SDS011;19162;48.254;11.454;2024-01-27T13:11:10;5.67;;;3.27;;
32812;SDS011;19162;48.254;11.454;2024-01-27T13:14:10;5.55;;;3.55;;
32812;SDS011;19162;48.254;11.454;2024-01-27T13:17:12;4.53;;;2.88;;
32812;SDS011;19162;48.254;11.454;2024-01-27T13:20:14;4.88;;;3.22;;
32812;SDS011;19162;48.254;11.454;2024-01-27T13:23:14;4.10;;;2.43;;
32812;SDS011;19162;48.254;11.454;2024-01-27T13:26:14;6.25;;;3.00;;
32812;SDS011;19162;48.254;11.454;2024-01-27T13:29:16;3.88;;;2.75;;
32812;SDS011;19162;48.254;11.454;2024-01-27T13:32:16;8.10;;;3.38;;
32812;SDS011;19162;48.254;11.454;2024-01-27T13:35:16;6.70;;;3.17;;
32812;SDS011;19162;48.254;11.454;2024-01-27T13:38:16;4.63;;;2.60;;
32812;SDS011;19162;48.254;11.454;2024-01-27T13:41:23;3.90;;;2.35;;
32812;SDS011;19162;48.254;11.454;2024-01-27T13:44:23;4.55;;;2.53;;
32812;SDS011;19162;48.254;11.454;2024-01-27T13:47:23;6.53;;;3.03;;
32812;SDS011;19162;48.254;11.454;2024-01-27T13:50:23;9.73;;;2.80;;
32812;SDS011;19162;48.254;11.454;2024-01-27T13:53:27;4.38;;;2.00;;
32812;SDS011;19162;48.254;11.454;2024-01-27T13:56:27;4.00;;;2.58;;
32812;SDS011;19162;48.254;11.454;2024-01-27T13:59:32;4.90;;;2.30;;
32812;SDS011;19162;48.254;11.454;2024-01-27T14:02:33;3.17;;;1.88;;
32812;SDS011;19162;48.254;11.454;2024-01-27T14:05:33;2.67;;;2.03;;
32812;SDS011;19162;48.254;11.454;2024-01-27T14:08:33;3.53;;;2.17;;
32812;SDS011;19162;48.254;11.454;2024-01-27T14:11:34;3.93;;;2.00;;
32812;SDS011;19162;48.254;11.454;2024-01-27T14:14:34;4.53;;;2.17;;
32812;SDS011;19162;48.254;11.454;2024-01-27T14:17:38;4.75;;;2.03;;
32812;SDS011;19162;48.254;11.454;2024-01-27T14:20:38;5.67;;;2.70;;
32812;SDS011;19162;48.254;11.454;2024-01-27T14:23:39;3.90;;;2.53;;
32812;SDS011;19162;48.254;11.454;2024-01-27T14:26:39;4.25;;;2.25;;
32812;SDS011;19162;48.254;11.454;2024-01-27T14:29:39;7.22;;;2.88;;
32812;SDS011;19162;48.254;11.454;2024-01-27T14:32:39;3.92;;;2.92;;
32812;SDS011;19162;48.254;11.454;2024-01-27T14:35:40;8.30;;;3.67;;
32812;SDS011;19162;48.254;11.454;2024-01-27T14:38:40;6.65;;;3.78;;
32812;SDS011;19162;48.254;11.454;2024-01-27T14:41:41;4.95;;;3.13;;
32812;SDS011;19162;48.254;11.454;2024-01-27T14:44:41;7.53;;;3.10;;
32812;SDS011;19162;48.254;11.454;2024-01-27T14:47:42;5.85;;;3.55;;
32812;SDS011;19162;48.254;11.454;2024-01-27T14:50:42;7.68;;;4.03;;
32812;SDS011;19162;48.254;11.454;2024-01-27T14:53:42;6.43;;;3.60;;
32812;SDS011;19162;48.254;11.454;2024-01-27T14:56:42;7.03;;;3.28;;
32812;SDS011;19162;48.254;11.454;2024-01-27T14:59:42;8.38;;;3.65;;
32812;SDS011;19162;48.254;11.454;2024-01-27T15:02:43;9.10;;;4.37;;
32812;SDS011;19162;48.254;11.454;2024-01-27T15:05:45;5.95;;;3.47;;
32812;SDS011;19162;48.254;11.454;2024-01-27T15:08:45;5.55;;;3.03;;
32812;SDS011;19162;48.254;11.454;2024-01-27T15:11:46;6.27;;;3.53;;
32812;SDS011;19162;48.254;11.454;2024-01-27T15:14:46;5.83;;;3.00;;
32812;SDS011;19162;48.254;11.454;2024-01-27T15:17:46;6.88;;;3.45;;
32812;SDS011;19162;48.254;11.454;2024-01-27T15:20:46;6.20;;;3.00;;
32812;SDS011;19162;48.254;11.454;2024-01-27T15:23:46;4.95;;;2.85;;
32812;SDS011;19162;48.254;11.454;2024-01-27T15:26:46;6.32;;;3.67;;
32812;SDS011;19162;48.254;11.454;2024-01-27T15:29:47;7.70;;;3.13;;
32812;SDS011;19162;48.254;11.454;2024-01-27T15:32:48;6.45;;;3.42;;
32812;SDS011;19162;48.254;11.454;2024-01-27T15:35:48;9.00;;;3.78;;
32812;SDS011;19162;48.254;11.454;2024-01-27T15:38:48;8.27;;;6.10;;
32812;SDS011;19162;48.254;11.454;2024-01-27T15:41:48;8.43;;;5.82;;
32812;SDS011;19162;48.254;11.454;2024-01-27T15:44:49;5.57;;;4.50;;
32812;SDS011;19162;48.254;11.454;2024-01-27T15:47:49;7.93;;;3.45;;
32812;SDS011;19162;48.254;11.454;2024-01-27T15:50:49;7.15;;;4.30;;
32812;SDS011;19162;48.254;11.454;2024-01-27T15:53:49;6.60;;;3.58;;
32812;SDS011;19162;48.254;11.454;2024-01-27T15:56:50;6.30;;;3.80;;
32812;SDS011;19162;48.254;11.454;2024-01-27T15:59:50;6.97;;;3.20;;
32812;SDS011;19162;48.254;11.454;2024-01-27T16:02:50;8.10;;;3.90;;
32812;SDS011;19162;48.254;11.454;2024-01-27T16:05:50;8.35;;;4.55;;
32812;SDS011;19162;48.254;11.454;2024-01-27T16:08:50;7.90;;;4.05;;
32812;SDS011;19162;48.254;11.454;2024-01-27T16:11:50;5.35;;;4.20;;
32812;SDS011;19162;48.254;11.454;2024-01-27T16:14:51;7.00;;;4.50;;
32812;SDS011;19162;48.254;11.454;2024-01-27T16:17:51;10.40;;;5.53;;
32812;SDS011;19162;48.254;11.454;2024-01-27T16:20:51;6.63;;;4.50;;
32812;SDS011;19162;48.254;11.454;2024-01-27T16:23:52;9.65;;;5.47;;
32812;SDS011;19162;48.254;11.454;2024-01-27T16:26:53;13.05;;;7.55;;
32812;SDS011;19162;48.254;11.454;2024-01-27T16:29:53;7.77;;;4.93;;
32812;SDS011;19162;48.254;11.454;2024-01-27T16:32:54;7.80;;;5.13;;
32812;SDS011;19162;48.254;11.454;2024-01-27T16:35:54;8.73;;;4.93;;
32812;SDS011;19162;48.254;11.454;2024-01-27T16:38:54;9.07;;;5.87;;
32812;SDS011;19162;48.254;11.454;2024-01-27T16:41:54;8.33;;;5.37;;
32812;SDS011;19162;48.254;11.454;2024-01-27T16:44:54;10.75;;;5.85;;
32812;SDS011;19162;48.254;11.454;2024-01-27T16:47:54;9.77;;;7.30;;
32812;SDS011;19162;48.254;11.454;2024-01-27T16:50:55;10.60;;;7.88;;
32812;SDS011;19162;48.254;11.454;2024-01-27T16:53:56;11.05;;;7.85;;
32812;SDS011;19162;48.254;11.454;2024-01-27T16:56:56;11.30;;;8.60;;
32812;SDS011;19162;48.254;11.454;2024-01-27T16:59:56;12.77;;;8.10;;
32812;SDS011;19162;48.254;11.454;2024-01-27T17:02:56;10.98;;;7.65;;
32812;SDS011;19162;48.254;11.454;2024-01-27T17:05:57;10.82;;;7.20;;
32812;SDS011;19162;48.254;11.454;2024-01-27T17:08:59;13.37;;;7.23;;
32812;SDS011;19162;48.254;11.454;2024-01-27T17:12:01;7.88;;;6.18;;
32812;SDS011;19162;48.254;11.454;2024-01-27T17:15:01;7.87;;;6.50;;
32812;SDS011;19162;48.254;11.454;2024-01-27T17:18:01;9.15;;;7.47;;
32812;SDS011;19162;48.254;11.454;2024-01-27T17:21:01;9.63;;;7.13;;
32812;SDS011;19162;48.254;11.454;2024-01-27T17:24:02;10.43;;;6.93;;
32812;SDS011;19162;48.254;11.454;2024-01-27T17:27:02;10.20;;;6.97;;
32812;SDS011;19162;48.254;11.454;2024-01-27T17:30:03;11.43;;;7.33;;
32812;SDS011;19162;48.254;11.454;2024-01-27T17:33:08;7.20;;;6.50;;
32812;SDS011;19162;48.254;11.454;2024-01-27T17:36:08;9.48;;;7.13;;
32812;SDS011;19162;48.254;11.454;2024-01-27T17:39:08;9.18;;;7.82;;
32812;SDS011;19162;48.254;11.454;2024-01-27T17:42:09;12.27;;;6.55;;
32812;SDS011;19162;48.254;11.454;2024-01-27T17:45:09;11.52;;;9.13;;
32812;SDS011;19162;48.254;11.454;2024-01-27T17:48:10;12.45;;;8.05;;
32812;SDS011;19162;48.254;11.454;2024-01-27T17:51:10;11.90;;;7.43;;
32812;SDS011;19162;48.254;11.454;2024-01-27T17:54:10;10.17;;;8.53;;
32812;SDS011;19162;48.254;11.454;2024-01-27T17:57:10;11.35;;;10.25;;